createdAt,value
2023-01-13T00:00:43.192Z,99487.50
2023-01-13T00:03:10.642Z,99465.09
2023-01-13T00:05:38.282Z,99493.88
2023-01-13T00:08:06.307Z,99481.00
2023-01-13T00:10:33.980Z,99479.50
2023-01-13T00:13:02.040Z,99484.09
2023-01-13T00:15:29.514Z,99497.16
2023-01-13T00:17:58.341Z,99497.53
2023-01-13T00:20:25.812Z,99486.22
2023-01-13T00:22:53.305Z,99481.41
2023-01-13T00:25:20.840Z,99475.00
2023-01-13T00:27:48.323Z,99478.47
2023-01-13T00:30:16.030Z,99449.13
2023-01-13T00:32:43.508Z,99464.81
2023-01-13T00:35:12.318Z,99462.19
2023-01-13T00:37:41.038Z,99464.88
2023-01-13T00:40:09.356Z,99455.59
2023-01-13T00:43:05.934Z,99453.88
2023-01-13T00:45:33.397Z,99451.59
2023-01-13T00:48:00.879Z,99460.00
2023-01-13T00:50:30.171Z,99458.84
2023-01-13T00:53:00.139Z,99442.84
2023-01-13T00:55:27.630Z,99441.59
2023-01-13T00:57:55.109Z,99447.78
2023-01-13T01:00:22.601Z,99449.44
2023-01-13T01:02:50.065Z,99451.25
2023-01-13T01:05:17.540Z,99432.06
2023-01-13T01:07:46.379Z,99450.13
2023-01-13T01:10:13.834Z,99449.72
2023-01-13T01:12:41.317Z,99450.31
2023-01-13T01:15:10.080Z,99470.03
2023-01-13T01:17:37.605Z,99467.72
2023-01-13T01:20:05.507Z,99475.69
2023-01-13T01:22:33.143Z,99469.13
2023-01-13T01:25:01.985Z,99495.78
2023-01-13T01:27:29.437Z,99478.97
2023-01-13T01:29:56.939Z,99477.81
2023-01-13T01:32:24.414Z,99486.22
2023-01-13T01:34:52.017Z,99489.06
2023-01-13T01:37:19.516Z,99484.25
2023-01-13T01:39:46.992Z,99475.56
2023-01-13T01:42:33.802Z,99489.09
2023-01-13T01:45:01.811Z,99483.00
2023-01-13T01:47:29.486Z,99486.38
2023-01-13T01:49:57.204Z,99498.16
2023-01-13T01:52:25.576Z,99494.06
2023-01-13T01:54:53.803Z,99500.66
2023-01-13T01:57:24.047Z,99489.00
2023-01-13T01:59:51.574Z,99488.03
2023-01-13T02:02:19.052Z,99498.53
2023-01-13T02:04:50.922Z,99475.75
2023-01-13T02:07:18.735Z,99493.22
2023-01-13T02:09:46.185Z,99480.38
2023-01-13T02:12:32.189Z,99496.78
2023-01-13T02:15:02.433Z,99486.91
2023-01-13T02:17:34.836Z,99503.31
2023-01-13T02:20:20.194Z,99502.63
2023-01-13T02:22:51.106Z,99475.22
2023-01-13T02:25:38.524Z,99483.59
2023-01-13T02:28:09.696Z,99451.59
2023-01-13T02:31:00.403Z,99475.56
2023-01-13T02:33:33.175Z,99467.63
2023-01-13T02:36:02.241Z,99459.22
2023-01-13T02:38:31.301Z,99458.31
2023-01-13T02:41:19.563Z,99459.63
2023-01-13T02:44:04.643Z,99451.44
2023-01-13T02:46:33.899Z,99432.53
2023-01-13T02:49:02.488Z,99448.09
2023-01-13T02:51:29.999Z,99443.69
2023-01-13T02:53:58.067Z,99424.75
2023-01-13T02:56:25.525Z,99394.81
2023-01-13T02:58:52.999Z,99436.41
2023-01-13T03:01:20.584Z,99429.91
2023-01-13T03:03:50.172Z,99453.50
2023-01-13T03:06:21.906Z,99428.44
2023-01-13T03:08:50.155Z,99439.69
2023-01-13T03:11:17.998Z,99437.16
2023-01-13T03:13:58.259Z,99440.50
2023-01-13T03:16:29.748Z,99432.38
2023-01-13T03:19:01.554Z,99434.28
2023-01-13T03:21:30.039Z,99436.78
2023-01-13T03:23:59.962Z,99423.78
2023-01-13T03:26:29.526Z,99428.06
2023-01-13T03:28:57.821Z,99425.66
2023-01-13T03:31:25.780Z,99428.44
2023-01-13T03:33:54.881Z,99421.06
2023-01-13T03:36:25.751Z,99427.94
2023-01-13T03:38:53.956Z,99427.25
2023-01-13T03:41:23.007Z,99418.25
2023-01-13T03:44:09.745Z,99430.63
2023-01-13T03:46:38.257Z,99432.91
2023-01-13T03:49:05.769Z,99432.84
2023-01-13T03:51:34.638Z,99434.63
2023-01-13T03:54:02.964Z,99431.69
2023-01-13T03:56:31.454Z,99432.63
2023-01-13T03:58:58.932Z,99419.66
2023-01-13T04:01:27.090Z,99433.91
2023-01-13T04:03:55.894Z,99414.41
2023-01-13T04:06:25.236Z,99428.50
2023-01-13T04:08:54.344Z,99421.72
2023-01-13T04:11:23.849Z,99414.41
2023-01-13T04:13:51.371Z,99418.25
2023-01-13T04:16:18.883Z,99420.28
2023-01-13T04:18:46.427Z,99413.13
2023-01-13T04:21:13.923Z,99401.09
2023-01-13T04:23:41.377Z,99413.78
2023-01-13T04:26:10.223Z,99424.00
2023-01-13T04:28:37.771Z,99410.09
2023-01-13T04:31:05.322Z,99420.88
2023-01-13T04:33:32.834Z,99429.13
2023-01-13T04:36:00.343Z,99412.25
2023-01-13T04:38:27.915Z,99413.88
2023-01-13T04:40:55.424Z,99396.25
2023-01-13T04:43:24.328Z,99397.53
2023-01-13T04:45:51.998Z,99394.06
2023-01-13T04:48:19.598Z,99389.53
2023-01-13T04:50:47.120Z,99390.22
2023-01-13T04:53:14.643Z,99397.03
2023-01-13T04:55:42.126Z,99392.78
2023-01-13T04:58:10.125Z,99413.94
2023-01-13T05:00:39.118Z,99392.31
2023-01-13T05:03:06.675Z,99394.25
2023-01-13T05:05:34.138Z,99408.47
2023-01-13T05:08:01.719Z,99395.38
2023-01-13T05:10:29.239Z,99385.16
2023-01-13T05:13:13.593Z,99371.16
2023-01-13T05:16:00.117Z,99383.31
2023-01-13T05:18:27.795Z,99382.38
2023-01-13T05:20:55.401Z,99386.25
2023-01-13T05:23:40.536Z,99383.72
2023-01-13T05:26:08.109Z,99383.31
2023-01-13T05:28:35.642Z,99391.44
2023-01-13T05:31:04.558Z,99400.78
2023-01-13T05:33:33.717Z,99391.19
2023-01-13T05:36:03.144Z,99395.31
2023-01-13T05:38:30.671Z,99392.16
2023-01-13T05:41:17.277Z,99392.38
2023-01-13T05:43:44.782Z,99394.44
2023-01-13T05:46:14.902Z,99403.72
2023-01-13T05:48:43.335Z,99407.47
2023-01-13T05:51:11.668Z,99394.06
2023-01-13T05:53:40.623Z,99396.50
2023-01-13T05:56:08.988Z,99395.91
2023-01-13T05:58:36.654Z,99420.91
2023-01-13T06:01:05.014Z,99395.09
2023-01-13T06:03:34.063Z,99400.06
2023-01-13T06:06:03.887Z,99398.88
2023-01-13T06:08:31.527Z,99403.31
2023-01-13T06:10:59.064Z,99397.84
2023-01-13T06:13:26.618Z,99384.31
2023-01-13T06:15:56.533Z,99378.09
2023-01-13T06:18:24.118Z,99405.06
2023-01-13T06:20:52.987Z,99397.44
2023-01-13T06:23:20.635Z,99389.25
2023-01-13T06:25:48.777Z,99396.97
2023-01-13T06:28:16.474Z,99405.56
2023-01-13T06:30:44.564Z,99406.00
2023-01-13T06:33:12.739Z,99401.00
2023-01-13T06:35:40.234Z,99420.19
2023-01-13T06:38:09.800Z,99409.81
2023-01-13T06:40:37.308Z,99393.94
2023-01-13T06:43:16.654Z,99382.66
2023-01-13T06:45:44.914Z,99391.75
2023-01-13T06:48:12.374Z,99402.88
2023-01-13T06:50:39.919Z,99408.75
2023-01-13T06:53:08.791Z,99411.94
2023-01-13T06:55:36.326Z,99416.97
2023-01-13T06:58:04.016Z,99422.81
2023-01-13T07:00:32.399Z,99423.69
2023-01-13T07:03:07.162Z,99412.56
2023-01-13T07:05:34.739Z,99422.56
2023-01-13T07:08:02.322Z,99424.66
2023-01-13T07:10:31.287Z,99395.50
2023-01-13T07:13:18.336Z,99431.00
2023-01-13T07:15:53.511Z,99422.81
2023-01-13T07:18:21.035Z,99402.34
2023-01-13T07:20:52.819Z,99413.91
2023-01-13T07:23:20.391Z,99409.81
2023-01-13T07:25:49.333Z,99432.63
2023-01-13T07:28:16.880Z,99424.84
2023-01-13T07:30:44.530Z,99424.44
2023-01-13T07:33:12.087Z,99412.03
2023-01-13T07:35:39.585Z,99409.72
2023-01-13T07:38:08.488Z,99426.63
2023-01-13T07:40:35.943Z,99425.25
2023-01-13T07:43:22.103Z,99416.13
2023-01-13T07:45:49.699Z,99408.25
2023-01-13T07:48:17.283Z,99422.22
2023-01-13T07:50:44.804Z,99428.00
2023-01-13T07:53:12.391Z,99405.00
2023-01-13T07:55:42.115Z,99413.63
2023-01-13T07:58:10.934Z,99416.13
2023-01-13T08:00:38.447Z,99409.41
2023-01-13T08:03:06.027Z,99403.06
2023-01-13T08:05:35.438Z,99419.06
2023-01-13T08:08:02.914Z,99409.72
2023-01-13T08:10:30.399Z,99421.34
2023-01-13T08:13:15.127Z,99402.44
2023-01-13T08:15:44.144Z,99421.53
2023-01-13T08:18:11.824Z,99422.38
2023-01-13T08:20:39.302Z,99418.56
2023-01-13T08:23:07.466Z,99419.06
2023-01-13T08:25:35.178Z,99414.41
2023-01-13T08:28:02.696Z,99415.06
2023-01-13T08:30:30.521Z,99446.09
2023-01-13T08:32:59.521Z,99433.28
2023-01-13T08:35:27.064Z,99431.91
2023-01-13T08:37:54.540Z,99429.91
2023-01-13T08:40:22.287Z,99443.47
2023-01-13T08:42:50.814Z,99444.47
2023-01-13T08:45:18.295Z,99443.41
2023-01-13T08:47:45.765Z,99439.25
2023-01-13T08:50:14.757Z,99441.31
2023-01-13T08:52:42.322Z,99444.41
2023-01-13T08:55:10.121Z,99452.03
2023-01-13T08:57:37.668Z,99444.53
2023-01-13T09:00:05.985Z,99440.09
2023-01-13T09:02:33.492Z,99459.97
2023-01-13T09:05:02.867Z,99454.81
2023-01-13T09:07:31.787Z,99451.88
2023-01-13T09:09:59.272Z,99449.56
2023-01-13T09:12:44.445Z,99453.66
2023-01-13T09:15:12.136Z,99473.84
2023-01-13T09:17:39.658Z,99480.50
2023-01-13T09:20:07.485Z,99485.75
2023-01-13T09:22:37.614Z,99493.72
2023-01-13T09:25:05.362Z,99475.22
2023-01-13T09:27:32.883Z,99495.22
2023-01-13T09:30:00.454Z,99501.72
2023-01-13T09:32:27.999Z,99502.91
2023-01-13T09:35:00.524Z,99502.13
2023-01-13T09:37:28.415Z,99512.06
2023-01-13T09:39:57.233Z,99502.63
2023-01-13T09:42:47.314Z,99526.66
2023-01-13T09:45:15.898Z,99513.81
2023-01-13T09:47:45.182Z,99526.41
2023-01-13T09:50:19.527Z,99525.44
2023-01-13T09:52:46.962Z,99513.25
2023-01-13T09:55:16.803Z,99530.31
2023-01-13T09:57:44.317Z,99542.44
2023-01-13T10:00:12.543Z,99535.59
2023-01-13T10:02:42.415Z,99536.22
2023-01-13T10:05:13.896Z,99540.09
2023-01-13T10:07:43.455Z,99550.13
2023-01-13T10:10:11.856Z,99542.97
2023-01-13T10:12:58.146Z,99514.63
2023-01-13T10:15:26.030Z,99546.16
2023-01-13T10:17:55.651Z,99528.66
2023-01-13T10:20:24.771Z,99522.69
2023-01-13T10:22:55.159Z,99528.94
2023-01-13T10:25:28.199Z,99520.00
2023-01-13T10:27:57.582Z,99531.97
2023-01-13T10:30:31.452Z,99516.19
2023-01-13T10:32:59.821Z,99536.53
2023-01-13T10:35:45.988Z,99548.16
2023-01-13T10:38:16.291Z,99563.41
2023-01-13T10:40:48.213Z,99556.00
2023-01-13T10:43:17.029Z,99553.09
2023-01-13T10:45:44.710Z,99565.91
2023-01-13T10:48:14.076Z,99543.75
2023-01-13T10:50:41.565Z,99561.59
2023-01-13T10:53:17.314Z,99560.94
2023-01-13T10:55:44.838Z,99560.66
2023-01-13T10:58:12.735Z,99573.69
2023-01-13T11:00:41.947Z,99582.78
2023-01-13T11:03:16.308Z,99580.03
2023-01-13T11:05:49.052Z,99568.66
2023-01-13T11:08:17.975Z,99565.91
2023-01-13T11:10:46.102Z,99572.03
2023-01-13T11:13:14.674Z,99579.81
2023-01-13T11:15:44.870Z,99586.75
2023-01-13T11:18:17.815Z,99581.69
2023-01-13T11:20:45.616Z,99562.97
2023-01-13T11:23:14.968Z,99591.28
2023-01-13T11:25:43.544Z,99581.06
2023-01-13T11:28:16.885Z,99590.06
2023-01-13T11:30:49.348Z,99574.00
2023-01-13T11:33:21.991Z,99583.47
2023-01-13T11:36:02.016Z,99607.72
2023-01-13T11:38:32.412Z,99596.22
2023-01-13T11:41:02.120Z,99597.34
2023-01-13T11:43:30.929Z,99600.63
2023-01-13T11:46:00.179Z,99603.91
2023-01-13T11:48:28.429Z,99584.34
2023-01-13T11:50:57.689Z,99628.56
2023-01-13T11:53:29.126Z,99596.06
2023-01-13T11:55:57.958Z,99602.63
2023-01-13T11:58:50.732Z,99606.19
2023-01-13T12:01:39.899Z,99585.41
2023-01-13T12:04:21.193Z,99624.31
2023-01-13T12:06:49.217Z,99622.31
2023-01-13T12:09:21.222Z,99619.06
2023-01-13T12:12:10.529Z,99621.59
2023-01-13T12:14:41.039Z,99609.41
2023-01-13T12:17:09.595Z,99607.81
2023-01-13T12:19:38.419Z,99626.47
2023-01-13T12:22:10.201Z,99623.81
2023-01-13T12:24:39.517Z,99645.50
2023-01-13T12:27:07.893Z,99629.03
2023-01-13T12:29:36.258Z,99635.91
2023-01-13T12:32:05.075Z,99642.31
2023-01-13T12:34:34.805Z,99649.88
2023-01-13T12:37:06.792Z,99641.69
2023-01-13T12:39:37.933Z,99645.75
2023-01-13T12:42:24.773Z,99638.44
2023-01-13T12:45:06.194Z,99639.56
2023-01-13T12:47:34.165Z,99642.78
2023-01-13T12:50:16.555Z,99647.78
2023-01-13T12:52:46.094Z,99654.09
2023-01-13T12:55:20.666Z,99644.88
2023-01-13T12:58:06.669Z,99667.66
2023-01-13T13:00:38.137Z,99639.78
2023-01-13T13:03:30.108Z,99669.44
2023-01-13T13:06:07.730Z,99665.69
2023-01-13T13:08:47.952Z,99669.41
2023-01-13T13:11:47.550Z,99671.63
2023-01-13T13:14:15.089Z,99674.31
2023-01-13T13:16:51.753Z,99658.09
2023-01-13T13:19:37.159Z,99675.56
2023-01-13T13:22:20.398Z,99671.13
2023-01-13T13:25:02.804Z,99698.56
2023-01-13T13:27:33.870Z,99677.00
2023-01-13T13:30:02.124Z,99689.50
2023-01-13T13:32:39.506Z,99674.56
2023-01-13T13:35:09.272Z,99682.81
2023-01-13T13:38:03.129Z,99691.44
2023-01-13T13:40:49.215Z,99693.22
2023-01-13T13:43:35.628Z,99710.81
2023-01-13T13:46:20.776Z,99710.13
2023-01-13T13:48:51.799Z,99698.59
2023-01-13T13:51:22.983Z,99708.88
2023-01-13T13:53:50.806Z,99735.56
2023-01-13T13:56:20.693Z,99731.84
2023-01-13T13:58:49.721Z,99721.13
2023-01-13T14:01:20.514Z,99745.03
2023-01-13T14:03:48.058Z,99728.66
2023-01-13T14:06:22.229Z,99759.91
2023-01-13T14:08:51.147Z,99754.94
2023-01-13T14:11:24.741Z,99744.31
2023-01-13T14:14:02.755Z,99766.41
2023-01-13T14:16:30.307Z,99761.44
2023-01-13T14:18:57.838Z,99776.94
2023-01-13T14:21:25.726Z,99768.88
2023-01-13T14:23:53.786Z,99760.59
2023-01-13T14:26:24.532Z,99774.91
2023-01-13T14:28:52.026Z,99777.84
2023-01-13T14:31:20.981Z,99767.16
2023-01-13T14:33:49.319Z,99776.28
2023-01-13T14:36:18.326Z,99784.31
2023-01-13T14:38:46.447Z,99779.91
2023-01-13T14:41:21.127Z,99787.44
2023-01-13T14:43:49.582Z,99804.19
2023-01-13T14:46:17.674Z,99793.88
2023-01-13T14:48:47.511Z,99785.50
2023-01-13T14:51:22.434Z,99785.16
2023-01-13T14:53:49.928Z,99810.31
2023-01-13T14:56:50.850Z,99806.16
2023-01-13T14:59:42.551Z,99794.94
2023-01-13T15:02:28.354Z,99804.66
2023-01-13T15:04:59.169Z,99829.34
2023-01-13T15:07:27.431Z,99849.34
2023-01-13T15:09:55.622Z,99837.50
2023-01-13T15:12:23.948Z,99846.66
2023-01-13T15:14:53.572Z,99849.88
2023-01-13T15:17:21.130Z,99850.63
2023-01-13T15:19:48.665Z,99864.44
2023-01-13T15:22:17.531Z,99855.03
2023-01-13T15:24:45.076Z,99887.09
2023-01-13T15:27:16.443Z,99872.03
2023-01-13T15:29:43.994Z,99861.47
2023-01-13T15:32:11.881Z,99879.66
2023-01-13T15:34:39.609Z,99892.75
2023-01-13T15:37:09.503Z,99886.88
2023-01-13T15:39:38.750Z,99887.16
2023-01-13T15:42:24.084Z,99905.03
2023-01-13T15:45:08.823Z,99902.97
2023-01-13T15:47:36.313Z,99898.44
2023-01-13T15:50:03.899Z,99904.84
2023-01-13T15:52:31.402Z,99931.41
2023-01-13T15:55:00.229Z,99940.50
2023-01-13T15:57:28.199Z,99925.22
2023-01-13T15:59:56.327Z,99925.69
2023-01-13T16:02:24.403Z,99912.25
2023-01-13T16:04:53.889Z,99919.03
2023-01-13T16:07:21.766Z,99921.63
2023-01-13T16:09:49.276Z,99910.06
2023-01-13T16:12:18.162Z,99921.44
2023-01-13T16:14:45.633Z,99929.25
2023-01-13T16:17:15.626Z,99915.78
2023-01-13T16:19:43.173Z,99931.56
2023-01-13T16:22:12.607Z,99931.56
2023-01-13T16:24:41.039Z,99940.97
2023-01-13T16:27:12.658Z,99927.66
2023-01-13T16:29:41.536Z,99939.03
2023-01-13T16:32:09.120Z,99967.69
2023-01-13T16:34:37.591Z,99958.97
2023-01-13T16:37:05.152Z,99952.63
2023-01-13T16:39:33.391Z,99974.81
2023-01-13T16:42:00.949Z,99987.84
2023-01-13T16:44:28.474Z,99970.28
2023-01-13T16:46:57.373Z,99975.81
2023-01-13T16:49:24.860Z,99986.44
2023-01-13T16:51:52.386Z,99984.78
2023-01-13T16:54:19.896Z,99977.25
2023-01-13T16:56:47.450Z,99982.31
2023-01-13T16:59:15.224Z,99993.97
2023-01-13T17:01:43.413Z,100001.16
2023-01-13T17:04:15.139Z,100013.34
2023-01-13T17:06:42.993Z,100007.13
2023-01-13T17:09:12.782Z,100011.06
2023-01-13T17:11:40.802Z,100034.31
2023-01-13T17:14:18.216Z,100033.59
2023-01-13T17:16:47.034Z,100041.75
2023-01-13T17:19:15.940Z,100043.50
2023-01-13T17:21:43.621Z,100062.75
2023-01-13T17:24:12.431Z,100066.75
2023-01-13T17:26:42.144Z,100072.88
2023-01-13T17:29:11.389Z,100075.84
2023-01-13T17:31:38.885Z,100067.91
2023-01-13T17:34:06.629Z,100098.16
2023-01-13T17:36:35.487Z,100077.38
2023-01-13T17:39:03.018Z,100082.81
2023-01-13T17:41:30.605Z,100086.31
2023-01-13T17:43:58.137Z,100091.00
2023-01-13T17:46:25.680Z,100095.50
2023-01-13T17:48:54.063Z,100103.88
2023-01-13T17:51:22.546Z,100106.25
2023-01-13T17:53:51.488Z,100082.59
2023-01-13T17:56:21.050Z,100118.25
2023-01-13T17:58:48.600Z,100102.19
2023-01-13T18:01:16.932Z,100112.09
2023-01-13T18:03:44.591Z,100106.28
2023-01-13T18:06:12.675Z,100128.69
2023-01-13T18:08:40.157Z,100140.91
2023-01-13T18:11:08.961Z,100127.09
2023-01-13T18:13:36.455Z,100140.50
2023-01-13T18:16:06.886Z,100145.66
2023-01-13T18:18:35.116Z,100134.41
2023-01-13T18:21:20.267Z,100140.91
2023-01-13T18:24:05.266Z,100146.19
2023-01-13T18:26:51.293Z,100150.00
2023-01-13T18:29:18.838Z,100145.59
2023-01-13T18:31:46.378Z,100157.94
2023-01-13T18:34:13.942Z,100161.78
2023-01-13T18:36:41.470Z,100172.28
2023-01-13T18:39:08.981Z,100186.13
2023-01-13T18:41:55.152Z,100177.81
2023-01-13T18:44:22.618Z,100189.94
2023-01-13T18:46:50.292Z,100182.09
2023-01-13T18:49:17.838Z,100192.22
2023-01-13T18:51:45.370Z,100198.78
2023-01-13T18:54:12.913Z,100194.31
2023-01-13T18:56:41.842Z,100212.13
2023-01-13T18:59:09.379Z,100208.22
2023-01-13T19:01:38.172Z,100211.09
2023-01-13T19:04:10.318Z,100230.81
2023-01-13T19:06:42.332Z,100225.03
2023-01-13T19:09:11.130Z,100229.28
2023-01-13T19:11:38.726Z,100224.50
2023-01-13T19:14:07.606Z,100214.81
2023-01-13T19:16:35.264Z,100234.19
2023-01-13T19:19:02.784Z,100233.69
2023-01-13T19:21:30.239Z,100219.50
2023-01-13T19:23:57.938Z,100236.19
2023-01-13T19:26:25.388Z,100238.72
2023-01-13T19:28:53.204Z,100235.91
2023-01-13T19:31:22.104Z,100252.41
2023-01-13T19:33:49.706Z,100261.59
2023-01-13T19:36:17.156Z,100260.22
2023-01-13T19:38:44.682Z,100267.09
2023-01-13T19:41:28.892Z,100260.63
2023-01-13T19:44:14.823Z,100263.50
2023-01-13T19:46:43.790Z,100261.75
2023-01-13T19:49:12.153Z,100280.66
2023-01-13T19:51:39.700Z,100261.63
2023-01-13T19:54:07.196Z,100288.88
2023-01-13T19:56:34.738Z,100284.31
2023-01-13T19:59:02.312Z,100276.38
2023-01-13T20:01:33.100Z,100288.31
2023-01-13T20:04:05.242Z,100301.19
2023-01-13T20:06:32.853Z,100316.69
2023-01-13T20:09:00.404Z,100321.16
2023-01-13T20:11:31.345Z,100325.31
2023-01-13T20:13:59.102Z,100308.13
2023-01-13T20:16:26.866Z,100305.09
2023-01-13T20:18:54.470Z,100311.50
2023-01-13T20:21:23.423Z,100317.38
2023-01-13T20:23:51.324Z,100326.63
2023-01-13T20:26:18.841Z,100321.19
2023-01-13T20:28:46.839Z,100343.09
2023-01-13T20:31:14.847Z,100332.47
2023-01-13T20:33:42.490Z,100327.22
2023-01-13T20:36:10.135Z,100325.75
2023-01-13T20:38:39.035Z,100347.22
2023-01-13T20:41:27.733Z,100359.06
2023-01-13T20:43:54.535Z,100347.31
2023-01-13T20:46:22.664Z,100354.69
2023-01-13T20:48:50.250Z,100345.91
2023-01-13T20:51:17.744Z,100346.75
2023-01-13T20:53:46.624Z,100351.09
2023-01-13T20:56:14.622Z,100348.84
2023-01-13T20:58:42.136Z,100351.34
2023-01-13T21:01:09.776Z,100340.16
2023-01-13T21:03:37.369Z,100352.81
2023-01-13T21:06:05.104Z,100343.47
2023-01-13T21:08:32.594Z,100348.78
2023-01-13T21:11:04.239Z,100362.66
2023-01-13T21:13:49.310Z,100370.19
2023-01-13T21:16:16.909Z,100365.97
2023-01-13T21:19:01.746Z,100383.03
2023-01-13T21:21:29.260Z,100378.69
2023-01-13T21:23:56.733Z,100390.94
2023-01-13T21:26:25.530Z,100407.25
2023-01-13T21:28:56.701Z,100402.69
2023-01-13T21:31:25.783Z,100409.41
2023-01-13T21:33:54.333Z,100418.28
2023-01-13T21:36:21.824Z,100420.69
2023-01-13T21:38:51.482Z,100432.19
2023-01-13T21:41:39.060Z,100423.06
2023-01-13T21:44:27.032Z,100427.09
2023-01-13T21:47:11.893Z,100436.19
2023-01-13T21:49:44.093Z,100438.13
2023-01-13T21:52:12.062Z,100442.53
2023-01-13T21:54:59.754Z,100427.22
2023-01-13T21:57:27.496Z,100461.91
2023-01-13T21:59:56.324Z,100453.16
2023-01-13T22:02:31.847Z,100456.50
2023-01-13T22:05:00.327Z,100472.84
2023-01-13T22:07:28.506Z,100474.72
2023-01-13T22:09:56.096Z,100480.91
2023-01-13T22:12:24.653Z,100473.41
2023-01-13T22:14:52.411Z,100466.50
2023-01-13T22:17:21.468Z,100465.78
2023-01-13T22:19:48.988Z,100478.38
2023-01-13T22:22:18.604Z,100484.69
2023-01-13T22:24:47.284Z,100478.47
2023-01-13T22:27:15.468Z,100480.69
2023-01-13T22:29:42.964Z,100481.06
2023-01-13T22:32:10.430Z,100481.16
2023-01-13T22:34:39.235Z,100494.03
2023-01-13T22:37:07.001Z,100496.13
2023-01-13T22:39:34.483Z,100511.97
2023-01-13T22:42:02.122Z,100504.97
2023-01-13T22:44:29.585Z,100511.16
2023-01-13T22:46:57.068Z,100501.69
2023-01-13T22:49:24.571Z,100501.59
2023-01-13T22:51:53.777Z,100513.84
2023-01-13T22:54:21.354Z,100518.47
2023-01-13T22:56:48.814Z,100523.09
2023-01-13T22:59:16.636Z,100521.53
2023-01-13T23:01:44.136Z,100513.94
2023-01-13T23:04:12.084Z,100524.09
2023-01-13T23:06:39.693Z,100528.88
2023-01-13T23:09:08.636Z,100529.72
2023-01-13T23:11:36.119Z,100520.63
2023-01-13T23:14:04.633Z,100536.50
2023-01-13T23:16:33.569Z,100537.47
2023-01-13T23:19:01.108Z,100523.59
2023-01-13T23:21:29.248Z,100530.00
2023-01-13T23:23:58.566Z,100531.53
2023-01-13T23:26:28.289Z,100525.59
2023-01-13T23:28:58.767Z,100537.63
2023-01-13T23:31:26.267Z,100547.81
2023-01-13T23:33:53.790Z,100539.03
2023-01-13T23:36:21.967Z,100516.28
2023-01-13T23:38:50.390Z,100519.47
2023-01-13T23:41:18.743Z,100527.38
2023-01-13T23:43:52.898Z,100520.31
2023-01-13T23:46:21.238Z,100514.31
2023-01-13T23:48:48.822Z,100518.09
2023-01-13T23:51:16.425Z,100533.47
2023-01-13T23:53:44.594Z,100537.13
2023-01-13T23:56:13.666Z,100526.44
2023-01-13T23:58:41.213Z,100549.22
